createdAt,value
2022-08-05T00:01:36.242Z,15.06
2022-08-05T00:04:17.260Z,15.05
2022-08-05T00:06:45.111Z,15.78
2022-08-05T00:09:15.979Z,15.67
2022-08-05T00:11:49.436Z,15.51
2022-08-05T00:14:27.505Z,14.90
2022-08-05T00:16:56.318Z,15.19
2022-08-05T00:19:24.864Z,15.33
2022-08-05T00:22:00.341Z,15.54
2022-08-05T00:24:30.932Z,15.67
2022-08-05T00:27:00.263Z,15.49
2022-08-05T00:29:38.145Z,14.78
2022-08-05T00:32:12.261Z,14.65
2022-08-05T00:35:05.019Z,15.00
2022-08-05T00:37:50.707Z,15.24
2022-08-05T00:40:27.526Z,15.38
2022-08-05T00:42:58.403Z,15.27
2022-08-05T00:45:38.014Z,15.24
2022-08-05T00:48:09.524Z,15.13
2022-08-05T00:50:41.933Z,14.94
2022-08-05T00:53:45.030Z,14.75
2022-08-05T00:55:58.364Z,14.99
2022-08-05T00:58:27.554Z,14.96
2022-08-05T01:00:56.342Z,15.06
2022-08-05T01:03:24.352Z,14.64
2022-08-05T01:05:58.667Z,14.08
2022-08-05T01:08:41.598Z,14.41
2022-08-05T01:11:22.277Z,14.10
2022-08-05T01:14:00.050Z,14.54
2022-08-05T01:16:50.914Z,14.78
2022-08-05T01:19:46.177Z,15.15
2022-08-05T01:22:58.120Z,14.84
2022-08-05T01:26:21.458Z,14.87
2022-08-05T01:29:23.222Z,14.81
2022-08-05T01:31:58.886Z,15.02
2022-08-05T01:35:10.371Z,14.88
2022-08-05T01:37:47.732Z,14.56
2022-08-05T01:40:29.218Z,14.47
2022-08-05T01:42:59.080Z,14.42
2022-08-05T01:45:35.038Z,14.48
2022-08-05T01:48:10.970Z,14.41
2022-08-05T01:50:40.956Z,14.21
2022-08-05T01:53:54.640Z,14.51
2022-08-05T01:56:11.356Z,14.84
2022-08-05T01:58:44.936Z,14.60
2022-08-05T02:01:14.652Z,14.37
2022-08-05T02:03:51.976Z,14.47
2022-08-05T02:06:33.935Z,14.25
2022-08-05T02:09:06.676Z,14.22
2022-08-05T02:12:18.469Z,14.13
2022-08-05T02:15:03.577Z,14.18
2022-08-05T02:18:33.259Z,14.12
2022-08-05T02:20:44.148Z,14.08
2022-08-05T02:23:15.847Z,13.80
2022-08-05T02:25:49.092Z,13.85
2022-08-05T02:28:28.833Z,13.98
2022-08-05T02:31:23.725Z,13.87
2022-08-05T02:34:05.021Z,13.83
2022-08-05T02:36:34.715Z,13.71
2022-08-05T02:39:09.819Z,13.89
2022-08-05T02:41:57.583Z,13.77
2022-08-05T02:44:28.600Z,13.74
2022-08-05T02:47:00.918Z,13.85
2022-08-05T02:49:40.663Z,13.86
2022-08-05T02:52:29.290Z,13.96
2022-08-05T02:55:05.390Z,14.27
2022-08-05T02:58:11.822Z,14.11
2022-08-05T03:00:23.158Z,14.08
2022-08-05T03:02:54.483Z,14.16
2022-08-05T03:06:56.031Z,14.22
2022-08-05T03:08:26.961Z,14.11
2022-08-05T03:11:53.611Z,13.88
2022-08-05T03:13:51.438Z,13.83
2022-08-05T03:16:29.985Z,13.73
2022-08-05T03:19:00.645Z,13.70
2022-08-05T03:21:28.743Z,13.75
2022-08-05T03:23:56.844Z,13.38
2022-08-05T03:26:32.023Z,13.49
2022-08-05T03:29:00.307Z,13.58
2022-08-05T03:31:57.394Z,13.60
2022-08-05T03:34:16.446Z,13.47
2022-08-05T03:36:43.808Z,13.25
2022-08-05T03:39:13.262Z,13.45
2022-08-05T03:41:47.404Z,13.51
2022-08-05T03:44:19.994Z,13.47
2022-08-05T03:46:47.256Z,13.29
2022-08-05T03:49:15.814Z,13.26
2022-08-05T03:52:50.387Z,13.53
2022-08-05T03:55:50.066Z,13.61
2022-08-05T03:57:48.820Z,13.66
2022-08-05T04:00:21.791Z,13.59
2022-08-05T04:02:58.446Z,13.57
2022-08-05T04:05:34.807Z,13.52
2022-08-05T04:08:14.594Z,13.49
2022-08-05T04:10:58.409Z,13.34
2022-08-05T04:13:49.929Z,13.36
2022-08-05T04:16:15.593Z,13.30
2022-08-05T04:18:54.248Z,13.48
2022-08-05T04:22:10.247Z,13.54
2022-08-05T04:24:19.231Z,13.65
2022-08-05T04:26:51.281Z,13.79
2022-08-05T04:29:21.853Z,13.76
2022-08-05T04:31:50.556Z,13.76
2022-08-05T04:34:32.803Z,13.53
2022-08-05T04:37:03.207Z,13.75
2022-08-05T04:39:32.149Z,13.71
2022-08-05T04:41:59.849Z,13.96
2022-08-05T04:44:30.298Z,14.37
2022-08-05T04:47:09.517Z,14.17
2022-08-05T04:50:02.782Z,14.27
2022-08-05T04:53:01.229Z,14.58
2022-08-05T04:56:33.341Z,14.47
2022-08-05T04:58:21.638Z,14.57
2022-08-05T05:00:50.660Z,14.68
2022-08-05T05:03:18.074Z,14.70
2022-08-05T05:06:36.705Z,14.65
2022-08-05T05:08:38.508Z,14.65
2022-08-05T05:11:10.493Z,14.52
2022-08-05T05:13:43.221Z,14.43
2022-08-05T05:16:15.512Z,14.30
2022-08-05T05:19:08.905Z,14.32
2022-08-05T05:21:34.050Z,14.20
2022-08-05T05:24:08.838Z,14.25
2022-08-05T05:26:36.214Z,14.34
2022-08-05T05:29:13.657Z,14.37
2022-08-05T05:31:42.752Z,14.34
2022-08-05T05:34:21.173Z,14.47
2022-08-05T05:36:51.350Z,14.39
2022-08-05T05:39:21.526Z,14.53
2022-08-05T05:41:54.558Z,14.69
2022-08-05T05:44:36.574Z,14.82
2022-08-05T05:47:21.345Z,15.21
2022-08-05T05:49:52.581Z,14.87
2022-08-05T05:52:29.963Z,15.42
2022-08-05T05:55:13.132Z,15.28
2022-08-05T05:57:52.720Z,15.57
2022-08-05T06:00:27.794Z,15.76
2022-08-05T06:03:39.645Z,16.00
2022-08-05T06:05:53.920Z,16.01
2022-08-05T06:08:31.486Z,15.94
2022-08-05T06:11:00.991Z,15.84
2022-08-05T06:13:28.408Z,16.09
2022-08-05T06:16:31.423Z,16.06
2022-08-05T06:18:55.042Z,16.09
2022-08-05T06:21:22.455Z,16.04
2022-08-05T06:23:52.605Z,15.88
2022-08-05T06:26:21.634Z,15.89
2022-08-05T06:28:51.948Z,15.85
2022-08-05T06:31:22.005Z,15.84
2022-08-05T06:34:07.998Z,16.16
2022-08-05T06:36:56.937Z,15.90
2022-08-05T06:39:24.611Z,15.81
2022-08-05T06:41:55.912Z,15.77
2022-08-05T06:44:25.990Z,15.52
2022-08-05T06:46:54.478Z,15.63
2022-08-05T06:49:59.824Z,15.98
2022-08-05T06:52:36.852Z,15.55
2022-08-05T06:54:56.094Z,16.02
2022-08-05T06:58:02.844Z,15.96
2022-08-05T07:00:12.761Z,16.25
2022-08-05T07:02:47.421Z,16.87
2022-08-05T07:05:24.593Z,16.68
2022-08-05T07:08:04.461Z,16.93
2022-08-05T07:10:32.627Z,17.09
2022-08-05T07:13:52.467Z,17.15
2022-08-05T07:16:39.434Z,17.22
2022-08-05T07:19:11.156Z,17.44
2022-08-05T07:21:59.286Z,17.11
2022-08-05T07:24:28.771Z,17.58
2022-08-05T07:26:57.027Z,17.64
2022-08-05T07:29:25.340Z,17.63
2022-08-05T07:32:12.391Z,17.82
2022-08-05T07:34:42.433Z,18.03
2022-08-05T07:37:11.591Z,18.27
2022-08-05T07:40:26.257Z,18.61
2022-08-05T07:42:31.469Z,18.47
2022-08-05T07:45:01.415Z,18.14
2022-08-05T07:47:31.171Z,17.84
2022-08-05T07:50:10.200Z,17.60
2022-08-05T07:52:45.217Z,18.06
2022-08-05T07:55:15.786Z,18.04
2022-08-05T07:58:04.039Z,17.53
2022-08-05T08:00:31.687Z,17.37
2022-08-05T08:03:14.102Z,17.26
2022-08-05T08:05:49.585Z,17.40
2022-08-05T08:08:20.040Z,17.31
2022-08-05T08:10:48.793Z,17.14
2022-08-05T08:13:21.879Z,17.14
2022-08-05T08:16:35.617Z,16.93
2022-08-05T08:18:43.177Z,16.94
2022-08-05T08:21:17.730Z,17.20
2022-08-05T08:24:01.354Z,16.60
2022-08-05T08:26:32.266Z,16.59
2022-08-05T08:29:29.612Z,16.77
2022-08-05T08:31:50.241Z,16.61
2022-08-05T08:34:29.890Z,16.70
2022-08-05T08:37:03.294Z,16.72
2022-08-05T08:39:32.508Z,16.91
2022-08-05T08:42:10.613Z,16.95
2022-08-05T08:45:20.710Z,17.29
2022-08-05T08:48:06.205Z,16.78
2022-08-05T08:51:23.078Z,16.73
2022-08-05T08:53:34.411Z,16.70
2022-08-05T08:56:06.957Z,16.87
2022-08-05T08:58:43.268Z,16.73
2022-08-05T09:01:15.769Z,16.60
2022-08-05T09:03:54.343Z,16.77
2022-08-05T09:06:29.684Z,16.48
2022-08-05T09:09:01.006Z,16.58
2022-08-05T09:11:51.229Z,16.52
2022-08-05T09:14:57.459Z,16.45
2022-08-05T09:17:41.075Z,16.35
2022-08-05T09:20:04.763Z,16.24
2022-08-05T09:23:19.756Z,16.06
2022-08-05T09:26:06.167Z,15.93
2022-08-05T09:28:36.117Z,16.30
2022-08-05T09:32:38.509Z,16.20
2022-08-05T09:34:11.567Z,16.23
2022-08-05T09:36:56.438Z,16.52
2022-08-05T09:39:41.392Z,16.75
2022-08-05T09:42:24.482Z,17.11
2022-08-05T09:45:03.224Z,17.09
2022-08-05T09:47:55.542Z,16.68
2022-08-05T09:50:44.175Z,16.63
2022-08-05T09:53:22.831Z,16.74
2022-08-05T09:56:04.733Z,17.00
2022-08-05T09:58:41.999Z,17.22
2022-08-05T10:01:15.762Z,17.02
2022-08-05T10:04:13.645Z,17.44
2022-08-05T10:06:59.270Z,16.74
2022-08-05T10:09:29.777Z,16.31
2022-08-05T10:12:18.554Z,16.22
2022-08-05T10:15:16.193Z,16.07
2022-08-05T10:18:17.379Z,15.78
2022-08-05T10:20:57.304Z,15.55
2022-08-05T10:23:50.909Z,15.30
2022-08-05T10:26:18.716Z,15.22
2022-08-05T10:28:51.417Z,15.46
2022-08-05T10:32:52.922Z,15.47
2022-08-05T10:34:11.201Z,16.20
2022-08-05T10:36:41.501Z,16.02
2022-08-05T10:39:59.137Z,15.77
2022-08-05T10:42:33.413Z,16.06
2022-08-05T10:45:21.568Z,16.51
2022-08-05T10:48:29.808Z,16.10
2022-08-05T10:51:22.074Z,16.10
2022-08-05T10:54:01.071Z,16.13
2022-08-05T10:56:58.461Z,15.79
2022-08-05T11:00:03.275Z,15.82
2022-08-05T11:02:34.665Z,15.73
2022-08-05T11:05:10.420Z,15.20
2022-08-05T11:08:01.096Z,15.70
2022-08-05T11:10:33.469Z,16.11
2022-08-05T11:13:01.327Z,16.11
2022-08-05T11:16:01.008Z,16.10
2022-08-05T11:18:34.020Z,16.48
2022-08-05T11:21:03.588Z,16.31
2022-08-05T11:24:05.632Z,15.85
2022-08-05T11:26:40.362Z,16.63
2022-08-05T11:29:13.265Z,16.71
2022-08-05T11:31:58.022Z,17.82
2022-08-05T11:34:51.420Z,17.74
2022-08-05T11:38:26.305Z,18.59
2022-08-05T11:41:01.809Z,18.86
2022-08-05T11:44:08.507Z,18.71
2022-08-05T11:47:09.380Z,20.20
2022-08-05T11:49:39.966Z,19.36
2022-08-05T11:52:11.547Z,19.05
2022-08-05T11:54:40.641Z,19.66
2022-08-05T11:57:24.939Z,19.02
2022-08-05T11:59:53.631Z,20.07
2022-08-05T12:02:32.976Z,21.08
2022-08-05T12:05:07.236Z,20.35
2022-08-05T12:08:08.384Z,20.42
2022-08-05T12:10:43.633Z,20.12
2022-08-05T12:13:17.337Z,21.13
2022-08-05T12:15:56.015Z,19.78
2022-08-05T12:18:39.000Z,20.22
2022-08-05T12:21:22.036Z,20.45
2022-08-05T12:24:07.034Z,20.51
2022-08-05T12:26:43.965Z,21.18
2022-08-05T12:29:22.794Z,21.61
2022-08-05T12:32:02.145Z,21.24
2022-08-05T12:34:36.894Z,21.16
2022-08-05T12:37:10.848Z,22.72
2022-08-05T12:39:51.113Z,23.16
2022-08-05T12:42:21.250Z,23.38
2022-08-05T12:44:52.117Z,23.41
2022-08-05T12:47:30.943Z,23.14
2022-08-05T12:50:02.191Z,23.81
2022-08-05T12:52:39.246Z,23.16
2022-08-05T12:55:32.539Z,22.66
2022-08-05T12:58:49.408Z,22.99
2022-08-05T13:02:00.103Z,21.99
2022-08-05T13:03:42.203Z,22.66
2022-08-05T13:06:17.527Z,22.95
2022-08-05T13:08:51.448Z,22.47
2022-08-05T13:12:01.569Z,21.88
2022-08-05T13:14:36.786Z,22.29
2022-08-05T13:17:31.634Z,22.31
2022-08-05T13:20:19.200Z,20.78
2022-08-05T13:22:52.413Z,21.16
2022-08-05T13:25:21.913Z,21.17
2022-08-05T13:27:57.278Z,20.93
2022-08-05T13:30:34.318Z,21.12
2022-08-05T13:33:04.126Z,21.61
2022-08-05T13:35:47.073Z,20.26
2022-08-05T13:38:28.034Z,21.32
2022-08-05T13:41:00.065Z,21.88
2022-08-05T13:43:44.466Z,22.22
2022-08-05T13:46:16.245Z,22.86
2022-08-05T13:48:58.485Z,21.91
2022-08-05T13:51:40.253Z,23.22
2022-08-05T13:54:13.680Z,22.82
2022-08-05T13:56:45.497Z,23.60
2022-08-05T13:59:30.876Z,22.81
2022-08-05T14:02:00.469Z,22.51
2022-08-05T14:04:51.454Z,22.15
2022-08-05T14:07:59.742Z,21.98
2022-08-05T14:10:19.236Z,21.40
2022-08-05T14:12:55.402Z,21.19
2022-08-05T14:16:05.878Z,21.37
2022-08-05T14:18:15.117Z,20.99
2022-08-05T14:20:47.159Z,20.34
2022-08-05T14:23:24.883Z,20.77
2022-08-05T14:25:58.967Z,20.93
2022-08-05T14:28:30.789Z,21.45
2022-08-05T14:31:01.759Z,21.67
2022-08-05T14:33:32.666Z,21.32
2022-08-05T14:36:20.573Z,20.92
2022-08-05T14:38:50.130Z,20.56
2022-08-05T14:41:18.699Z,20.46
2022-08-05T14:44:02.461Z,19.63
2022-08-05T14:46:35.103Z,20.01
2022-08-05T14:49:07.509Z,20.09
2022-08-05T14:51:38.109Z,19.64
2022-08-05T14:54:28.291Z,19.99
2022-08-05T14:56:55.147Z,19.60
2022-08-05T14:59:22.400Z,19.70
2022-08-05T15:01:50.343Z,18.86
2022-08-05T15:04:22.372Z,19.70
2022-08-05T15:06:52.873Z,19.93
2022-08-05T15:09:52.368Z,19.08
2022-08-05T15:12:11.614Z,19.40
2022-08-05T15:14:50.601Z,18.82
2022-08-05T15:17:46.124Z,18.22
2022-08-05T15:20:18.580Z,18.05
2022-08-05T15:22:54.267Z,18.15
2022-08-05T15:25:52.869Z,18.02
2022-08-05T15:28:15.732Z,17.93
2022-08-05T15:30:46.709Z,18.26
2022-08-05T15:33:56.601Z,17.65
2022-08-05T15:36:09.040Z,17.57
2022-08-05T15:38:46.454Z,17.12
2022-08-05T15:41:21.833Z,17.54
2022-08-05T15:43:54.504Z,17.43
2022-08-05T15:46:24.120Z,17.35
2022-08-05T15:48:54.770Z,16.89
2022-08-05T15:52:12.811Z,17.14
2022-08-05T15:54:17.382Z,17.08
2022-08-05T15:56:44.352Z,16.88
2022-08-05T15:59:21.601Z,17.01
2022-08-05T16:01:52.308Z,16.49
2022-08-05T16:04:25.663Z,17.09
2022-08-05T16:06:55.550Z,16.52
2022-08-05T16:09:24.691Z,16.25
2022-08-05T16:11:54.101Z,16.59
2022-08-05T16:14:23.045Z,16.13
2022-08-05T16:16:50.610Z,15.93
2022-08-05T16:19:19.250Z,15.97
2022-08-05T16:22:06.745Z,16.26
2022-08-05T16:24:40.574Z,16.36
2022-08-05T16:27:09.712Z,16.06
2022-08-05T16:29:50.298Z,16.22
2022-08-05T16:32:23.350Z,16.38
2022-08-05T16:35:00.720Z,16.06
2022-08-05T16:38:03.094Z,15.97
2022-08-05T16:40:28.695Z,16.12
2022-08-05T16:43:03.336Z,15.85
2022-08-05T16:46:03.613Z,15.97
2022-08-05T16:48:33.841Z,15.87
2022-08-05T16:51:09.311Z,15.88
2022-08-05T16:54:04.955Z,16.04
2022-08-05T16:56:30.449Z,15.90
2022-08-05T16:58:58.874Z,15.43
2022-08-05T17:01:28.243Z,15.04
2022-08-05T17:04:15.242Z,15.07
2022-08-05T17:06:42.371Z,14.53
2022-08-05T17:09:09.490Z,14.22
2022-08-05T17:11:48.592Z,14.30
2022-08-05T17:14:22.340Z,14.14
2022-08-05T17:17:02.631Z,13.38
2022-08-05T17:19:29.727Z,13.41
2022-08-05T17:21:58.379Z,13.11
2022-08-05T17:24:33.947Z,12.78
2022-08-05T17:27:06.205Z,12.44
2022-08-05T17:29:41.274Z,12.37
2022-08-05T17:32:16.999Z,12.58
2022-08-05T17:34:49.093Z,11.82
2022-08-05T17:37:40.125Z,11.78
2022-08-05T17:40:12.422Z,11.74
2022-08-05T17:42:55.713Z,11.46
2022-08-05T17:45:38.007Z,11.61
2022-08-05T17:48:12.005Z,11.20
2022-08-05T17:50:39.250Z,11.01
2022-08-05T17:53:17.681Z,11.19
2022-08-05T17:55:48.048Z,10.58
2022-08-05T17:58:32.283Z,10.25
2022-08-05T18:01:08.225Z,10.24
2022-08-05T18:04:11.947Z,9.86
2022-08-05T18:09:59.970Z,9.85
2022-08-05T18:12:59.266Z,10.11
2022-08-05T18:19:10.850Z,9.97
2022-08-05T18:22:08.758Z,10.22
2022-08-05T18:24:43.905Z,10.32
2022-08-05T18:27:12.692Z,10.44
2022-08-05T18:29:51.928Z,10.60
2022-08-05T18:32:27.703Z,10.21
2022-08-05T18:34:55.741Z,10.40
2022-08-05T18:37:33.414Z,10.16
2022-08-05T18:40:33.906Z,9.97
2022-08-05T18:42:47.920Z,9.97
2022-08-05T18:45:15.014Z,9.70
2022-08-05T18:47:42.822Z,9.71
2022-08-05T18:50:44.829Z,9.96
2022-08-05T18:53:22.731Z,9.91
2022-08-05T18:55:52.053Z,10.13
2022-08-05T18:58:21.241Z,10.49
2022-08-05T19:00:54.474Z,10.35
2022-08-05T19:03:55.091Z,10.40
2022-08-05T19:06:19.153Z,10.35
2022-08-05T19:08:49.440Z,9.75
2022-08-05T19:11:16.416Z,9.74
2022-08-05T19:14:00.944Z,9.61
2022-08-05T19:16:33.069Z,9.68
2022-08-05T19:19:03.982Z,9.51
2022-08-05T19:21:34.301Z,9.66
2022-08-05T19:24:07.090Z,9.73
2022-08-05T19:26:54.903Z,9.65
2022-08-05T19:29:26.688Z,9.84
2022-08-05T19:32:11.120Z,9.35
2022-08-05T19:34:38.948Z,9.29
2022-08-05T19:37:06.643Z,9.19
2022-08-05T19:39:45.685Z,9.05
2022-08-05T19:42:35.821Z,9.03
2022-08-05T19:45:05.604Z,9.16
2022-08-05T19:47:37.496Z,8.86
2022-08-05T19:50:07.915Z,9.03
2022-08-05T19:52:39.649Z,9.38
2022-08-05T19:56:14.546Z,8.94
2022-08-05T19:58:10.396Z,9.01
2022-08-05T20:00:42.106Z,8.90
2022-08-05T20:03:09.599Z,8.98
2022-08-05T20:05:50.159Z,9.03
2022-08-05T20:08:17.534Z,9.31
2022-08-05T20:10:44.519Z,9.37
2022-08-05T20:13:16.947Z,9.26
2022-08-05T20:15:52.073Z,8.91
2022-08-05T20:18:33.927Z,8.76
2022-08-05T20:21:06.530Z,9.01
2022-08-05T20:23:39.899Z,8.76
2022-08-05T20:26:30.554Z,8.88
2022-08-05T20:29:27.587Z,8.87
2022-08-05T20:32:18.105Z,8.95
2022-08-05T20:34:46.070Z,9.10
2022-08-05T20:38:04.835Z,9.04
2022-08-05T20:40:07.588Z,9.01
2022-08-05T20:42:35.516Z,9.11
2022-08-05T20:45:04.613Z,8.98
2022-08-05T20:47:40.278Z,9.07
2022-08-05T20:50:09.378Z,9.05
2022-08-05T20:52:41.440Z,8.95
2022-08-05T20:56:07.274Z,8.91
2022-08-05T20:57:57.129Z,8.93
2022-08-05T21:00:49.518Z,8.74
2022-08-05T21:03:12.189Z,8.99
2022-08-05T21:05:53.666Z,8.98
2022-08-05T21:08:26.637Z,8.67
2022-08-05T21:11:00.486Z,8.90
2022-08-05T21:13:47.084Z,8.84
2022-08-05T21:16:20.052Z,8.66
2022-08-05T21:18:47.408Z,8.63
2022-08-05T21:21:17.323Z,8.81
2022-08-05T21:23:50.405Z,8.90
2022-08-05T21:26:19.070Z,9.14
2022-08-05T21:28:47.616Z,9.29
2022-08-05T21:31:19.200Z,8.91
2022-08-05T21:33:47.717Z,9.06
2022-08-05T21:36:27.450Z,8.80
2022-08-05T21:38:57.401Z,8.78
2022-08-05T21:41:26.109Z,9.04
2022-08-05T21:44:04.278Z,9.00
2022-08-05T21:46:45.254Z,8.86
2022-08-05T21:50:00.472Z,8.92
2022-08-05T21:56:16.165Z,8.51
2022-08-05T21:58:48.415Z,8.60
2022-08-05T22:01:25.972Z,8.73
2022-08-05T22:03:53.863Z,8.64
2022-08-05T22:06:35.218Z,8.70
2022-08-05T22:09:14.589Z,8.54
2022-08-05T22:11:46.688Z,8.25
2022-08-05T22:14:34.343Z,8.67
2022-08-05T22:17:05.294Z,8.29
2022-08-05T22:20:02.561Z,8.22
2022-08-05T22:22:27.332Z,8.49
2022-08-05T22:25:31.169Z,8.62
2022-08-05T22:37:59.025Z,8.22
2022-08-05T22:41:09.423Z,8.24
2022-08-05T22:43:43.179Z,7.89
2022-08-05T22:46:13.490Z,8.10
2022-08-05T22:52:32.378Z,8.13
2022-08-05T22:55:37.292Z,8.17
2022-08-05T22:58:53.054Z,7.97
2022-08-05T23:15:12.720Z,7.87
2022-08-05T23:18:19.381Z,7.72
2022-08-05T23:24:51.079Z,7.62
2022-08-05T23:27:22.690Z,7.54
2022-08-05T23:29:51.802Z,7.60
2022-08-05T23:35:34.483Z,7.77
2022-08-05T23:41:41.094Z,7.56
2022-08-05T23:50:46.163Z,7.47
2022-08-05T23:54:12.089Z,7.59
2022-08-05T23:56:40.088Z,7.44
2022-08-05T23:59:17.054Z,7.46
